sensor_id;sensor_type;location;lat;lon;timestamp;P1;durP1;ratioP1;P2;durP2;ratioP2
4676;SDS011;2352;48.180;11.478;2023-06-10T00:01:58;4.70;;;4.40;;
4676;SDS011;2352;48.180;11.478;2023-06-10T00:05:02;4.53;;;4.22;;
4676;SDS011;2352;48.180;11.478;2023-06-10T00:08:05;4.80;;;4.50;;
4676;SDS011;2352;48.180;11.478;2023-06-10T00:11:09;5.80;;;5.40;;
4676;SDS011;2352;48.180;11.478;2023-06-10T00:14:14;5.27;;;4.87;;
4676;SDS011;2352;48.180;11.478;2023-06-10T00:17:17;7.97;;;4.80;;
4676;SDS011;2352;48.180;11.478;2023-06-10T00:20:20;5.10;;;4.70;;
4676;SDS011;2352;48.180;11.478;2023-06-10T00:23:25;5.43;;;5.13;;
4676;SDS011;2352;48.180;11.478;2023-06-10T00:26:30;4.97;;;4.67;;
4676;SDS011;2352;48.180;11.478;2023-06-10T00:29:35;6.20;;;5.80;;
4676;SDS011;2352;48.180;11.478;2023-06-10T00:32:40;8.63;;;6.10;;
4676;SDS011;2352;48.180;11.478;2023-06-10T00:35:43;6.00;;;5.57;;
4676;SDS011;2352;48.180;11.478;2023-06-10T00:38:46;6.60;;;5.70;;
4676;SDS011;2352;48.180;11.478;2023-06-10T00:41:50;6.30;;;5.73;;
4676;SDS011;2352;48.180;11.478;2023-06-10T00:44:55;6.87;;;6.37;;
4676;SDS011;2352;48.180;11.478;2023-06-10T00:47:58;6.43;;;6.03;;
4676;SDS011;2352;48.180;11.478;2023-06-10T00:51:03;6.50;;;6.00;;
4676;SDS011;2352;48.180;11.478;2023-06-10T00:54:10;7.43;;;6.82;;
4676;SDS011;2352;48.180;11.478;2023-06-10T00:57:14;7.00;;;6.50;;
4676;SDS011;2352;48.180;11.478;2023-06-10T01:00:19;6.47;;;6.07;;
4676;SDS011;2352;48.180;11.478;2023-06-10T01:03:23;6.40;;;5.90;;
4676;SDS011;2352;48.180;11.478;2023-06-10T01:06:34;6.27;;;5.87;;
4676;SDS011;2352;48.180;11.478;2023-06-10T01:09:40;6.73;;;6.23;;
4676;SDS011;2352;48.180;11.478;2023-06-10T01:12:45;6.53;;;6.13;;
4676;SDS011;2352;48.180;11.478;2023-06-10T01:15:52;7.40;;;7.00;;
4676;SDS011;2352;48.180;11.478;2023-06-10T01:18:55;6.37;;;5.97;;
4676;SDS011;2352;48.180;11.478;2023-06-10T01:22:00;6.77;;;6.37;;
4676;SDS011;2352;48.180;11.478;2023-06-10T01:25:04;6.60;;;6.20;;
4676;SDS011;2352;48.180;11.478;2023-06-10T01:28:10;6.07;;;5.63;;
4676;SDS011;2352;48.180;11.478;2023-06-10T01:31:16;6.70;;;6.27;;
4676;SDS011;2352;48.180;11.478;2023-06-10T01:34:22;7.00;;;6.33;;
4676;SDS011;2352;48.180;11.478;2023-06-10T01:37:28;6.50;;;6.00;;
4676;SDS011;2352;48.180;11.478;2023-06-10T01:40:31;7.30;;;6.83;;
4676;SDS011;2352;48.180;11.478;2023-06-10T01:43:37;6.80;;;6.40;;
4676;SDS011;2352;48.180;11.478;2023-06-10T01:46:40;6.50;;;6.03;;
4676;SDS011;2352;48.180;11.478;2023-06-10T01:49:44;6.97;;;6.37;;
4676;SDS011;2352;48.180;11.478;2023-06-10T01:52:48;7.00;;;6.40;;
4676;SDS011;2352;48.180;11.478;2023-06-10T01:55:51;6.80;;;6.40;;
4676;SDS011;2352;48.180;11.478;2023-06-10T01:58:55;6.43;;;6.03;;
4676;SDS011;2352;48.180;11.478;2023-06-10T02:02:00;6.47;;;5.97;;
4676;SDS011;2352;48.180;11.478;2023-06-10T02:05:04;6.07;;;5.67;;
4676;SDS011;2352;48.180;11.478;2023-06-10T02:08:09;6.40;;;5.90;;
4676;SDS011;2352;48.180;11.478;2023-06-10T02:11:12;7.17;;;6.70;;
4676;SDS011;2352;48.180;11.478;2023-06-10T02:14:15;7.70;;;7.20;;
4676;SDS011;2352;48.180;11.478;2023-06-10T02:17:19;6.93;;;6.53;;
4676;SDS011;2352;48.180;11.478;2023-06-10T02:20:22;6.67;;;6.27;;
4676;SDS011;2352;48.180;11.478;2023-06-10T02:23:26;6.27;;;5.87;;
4676;SDS011;2352;48.180;11.478;2023-06-10T02:26:30;7.57;;;7.07;;
4676;SDS011;2352;48.180;11.478;2023-06-10T02:29:33;7.90;;;7.40;;
4676;SDS011;2352;48.180;11.478;2023-06-10T02:32:36;6.67;;;6.17;;
4676;SDS011;2352;48.180;11.478;2023-06-10T02:35:40;7.70;;;7.13;;
4676;SDS011;2352;48.180;11.478;2023-06-10T02:38:44;7.23;;;6.63;;
4676;SDS011;2352;48.180;11.478;2023-06-10T02:41:48;7.73;;;7.33;;
4676;SDS011;2352;48.180;11.478;2023-06-10T02:44:51;7.20;;;6.73;;
4676;SDS011;2352;48.180;11.478;2023-06-10T02:47:54;7.13;;;6.73;;
4676;SDS011;2352;48.180;11.478;2023-06-10T02:50:58;8.13;;;7.53;;
4676;SDS011;2352;48.180;11.478;2023-06-10T02:54:02;6.77;;;6.37;;
4676;SDS011;2352;48.180;11.478;2023-06-10T02:57:06;7.90;;;7.40;;
4676;SDS011;2352;48.180;11.478;2023-06-10T03:00:11;7.57;;;6.97;;
4676;SDS011;2352;48.180;11.478;2023-06-10T03:03:15;7.90;;;7.40;;
4676;SDS011;2352;48.180;11.478;2023-06-10T03:06:18;7.60;;;7.13;;
4676;SDS011;2352;48.180;11.478;2023-06-10T03:09:23;8.53;;;7.83;;
4676;SDS011;2352;48.180;11.478;2023-06-10T03:12:26;7.37;;;6.97;;
4676;SDS011;2352;48.180;11.478;2023-06-10T03:15:30;6.90;;;6.50;;
4676;SDS011;2352;48.180;11.478;2023-06-10T03:18:34;8.07;;;7.50;;
4676;SDS011;2352;48.180;11.478;2023-06-10T03:21:37;8.07;;;7.50;;
4676;SDS011;2352;48.180;11.478;2023-06-10T03:24:44;7.30;;;6.90;;
4676;SDS011;2352;48.180;11.478;2023-06-10T03:27:47;8.03;;;7.53;;
4676;SDS011;2352;48.180;11.478;2023-06-10T03:30:51;8.97;;;8.27;;
4676;SDS011;2352;48.180;11.478;2023-06-10T03:33:54;8.43;;;7.80;;
4676;SDS011;2352;48.180;11.478;2023-06-10T03:36:58;9.23;;;8.63;;
4676;SDS011;2352;48.180;11.478;2023-06-10T03:40:03;8.63;;;8.03;;
4676;SDS011;2352;48.180;11.478;2023-06-10T03:43:07;8.30;;;7.70;;
4676;SDS011;2352;48.180;11.478;2023-06-10T03:46:10;9.03;;;8.33;;
4676;SDS011;2352;48.180;11.478;2023-06-10T03:49:13;9.63;;;8.97;;
4676;SDS011;2352;48.180;11.478;2023-06-10T03:52:17;9.63;;;9.03;;
4676;SDS011;2352;48.180;11.478;2023-06-10T03:55:22;8.37;;;7.77;;
4676;SDS011;2352;48.180;11.478;2023-06-10T03:58:25;9.30;;;8.70;;
4676;SDS011;2352;48.180;11.478;2023-06-10T04:01:28;9.50;;;8.67;;
4676;SDS011;2352;48.180;11.478;2023-06-10T04:04:33;10.20;;;9.40;;
4676;SDS011;2352;48.180;11.478;2023-06-10T04:07:37;8.50;;;7.93;;
4676;SDS011;2352;48.180;11.478;2023-06-10T04:10:43;9.60;;;9.00;;
4676;SDS011;2352;48.180;11.478;2023-06-10T04:13:46;9.23;;;8.63;;
4676;SDS011;2352;48.180;11.478;2023-06-10T04:16:51;8.90;;;8.40;;
4676;SDS011;2352;48.180;11.478;2023-06-10T04:19:54;9.80;;;9.20;;
4676;SDS011;2352;48.180;11.478;2023-06-10T04:22:58;10.27;;;9.47;;
4676;SDS011;2352;48.180;11.478;2023-06-10T04:26:04;8.43;;;7.93;;
4676;SDS011;2352;48.180;11.478;2023-06-10T04:29:08;8.53;;;7.93;;
4676;SDS011;2352;48.180;11.478;2023-06-10T04:32:11;9.60;;;9.00;;
4676;SDS011;2352;48.180;11.478;2023-06-10T04:35:15;9.57;;;8.97;;
4676;SDS011;2352;48.180;11.478;2023-06-10T04:38:18;9.30;;;8.70;;
4676;SDS011;2352;48.180;11.478;2023-06-10T04:41:23;9.80;;;9.03;;
4676;SDS011;2352;48.180;11.478;2023-06-10T04:44:28;11.13;;;10.43;;
4676;SDS011;2352;48.180;11.478;2023-06-10T04:47:32;9.87;;;9.27;;
4676;SDS011;2352;48.180;11.478;2023-06-10T04:50:35;9.60;;;9.00;;
4676;SDS011;2352;48.180;11.478;2023-06-10T04:53:38;9.50;;;8.83;;
4676;SDS011;2352;48.180;11.478;2023-06-10T04:56:43;8.13;;;7.63;;
4676;SDS011;2352;48.180;11.478;2023-06-10T04:59:47;10.03;;;9.40;;
4676;SDS011;2352;48.180;11.478;2023-06-10T05:02:51;10.03;;;9.23;;
4676;SDS011;2352;48.180;11.478;2023-06-10T05:05:54;9.33;;;8.80;;
4676;SDS011;2352;48.180;11.478;2023-06-10T05:08:58;9.90;;;9.30;;
4676;SDS011;2352;48.180;11.478;2023-06-10T05:12:02;10.20;;;9.40;;
4676;SDS011;2352;48.180;11.478;2023-06-10T05:15:06;10.50;;;9.60;;
4676;SDS011;2352;48.180;11.478;2023-06-10T05:18:10;9.33;;;8.70;;
4676;SDS011;2352;48.180;11.478;2023-06-10T05:21:14;9.10;;;8.47;;
4676;SDS011;2352;48.180;11.478;2023-06-10T05:24:17;8.23;;;7.73;;
4676;SDS011;2352;48.180;11.478;2023-06-10T05:27:22;9.67;;;9.07;;
4676;SDS011;2352;48.180;11.478;2023-06-10T05:30:25;9.73;;;9.13;;
4676;SDS011;2352;48.180;11.478;2023-06-10T05:33:28;10.17;;;9.57;;
4676;SDS011;2352;48.180;11.478;2023-06-10T05:36:32;9.33;;;8.70;;
4676;SDS011;2352;48.180;11.478;2023-06-10T05:39:35;9.43;;;8.63;;
4676;SDS011;2352;48.180;11.478;2023-06-10T05:42:41;9.93;;;9.23;;
4676;SDS011;2352;48.180;11.478;2023-06-10T05:45:44;9.47;;;8.83;;
4676;SDS011;2352;48.180;11.478;2023-06-10T05:48:47;9.67;;;9.07;;
4676;SDS011;2352;48.180;11.478;2023-06-10T05:51:50;9.17;;;8.57;;
4676;SDS011;2352;48.180;11.478;2023-06-10T05:54:54;9.43;;;8.82;;
4676;SDS011;2352;48.180;11.478;2023-06-10T05:57:59;10.13;;;9.43;;
4676;SDS011;2352;48.180;11.478;2023-06-10T06:01:02;9.57;;;8.77;;
4676;SDS011;2352;48.180;11.478;2023-06-10T06:04:06;9.73;;;8.93;;
4676;SDS011;2352;48.180;11.478;2023-06-10T06:07:09;10.03;;;9.40;;
4676;SDS011;2352;48.180;11.478;2023-06-10T06:10:12;10.82;;;9.70;;
4676;SDS011;2352;48.180;11.478;2023-06-10T06:13:17;9.90;;;9.20;;
4676;SDS011;2352;48.180;11.478;2023-06-10T06:16:20;8.30;;;7.80;;
4676;SDS011;2352;48.180;11.478;2023-06-10T06:19:24;9.65;;;8.80;;
4676;SDS011;2352;48.180;11.478;2023-06-10T06:22:27;8.88;;;8.18;;
4676;SDS011;2352;48.180;11.478;2023-06-10T06:25:31;8.95;;;8.40;;
4676;SDS011;2352;48.180;11.478;2023-06-10T06:28:35;8.07;;;7.57;;
4676;SDS011;2352;48.180;11.478;2023-06-10T06:31:39;8.77;;;8.25;;
4676;SDS011;2352;48.180;11.478;2023-06-10T06:34:42;7.28;;;6.85;;
4676;SDS011;2352;48.180;11.478;2023-06-10T06:37:45;7.57;;;6.97;;
4676;SDS011;2352;48.180;11.478;2023-06-10T06:40:49;7.13;;;6.72;;
4676;SDS011;2352;48.180;11.478;2023-06-10T06:43:53;8.63;;;7.93;;
4676;SDS011;2352;48.180;11.478;2023-06-10T06:46:57;8.35;;;7.85;;
4676;SDS011;2352;48.180;11.478;2023-06-10T06:50:00;11.65;;;10.75;;
4676;SDS011;2352;48.180;11.478;2023-06-10T06:53:04;12.35;;;11.25;;
4676;SDS011;2352;48.180;11.478;2023-06-10T06:56:07;14.48;;;13.48;;
4676;SDS011;2352;48.180;11.478;2023-06-10T06:59:11;11.57;;;10.88;;
4676;SDS011;2352;48.180;11.478;2023-06-10T07:02:16;11.98;;;11.18;;
4676;SDS011;2352;48.180;11.478;2023-06-10T07:05:20;9.18;;;8.48;;
4676;SDS011;2352;48.180;11.478;2023-06-10T07:08:23;8.40;;;7.80;;
4676;SDS011;2352;48.180;11.478;2023-06-10T07:11:27;8.93;;;8.32;;
4676;SDS011;2352;48.180;11.478;2023-06-10T07:14:38;7.88;;;7.38;;
4676;SDS011;2352;48.180;11.478;2023-06-10T07:17:41;6.65;;;6.15;;
4676;SDS011;2352;48.180;11.478;2023-06-10T07:20:44;6.22;;;5.70;;
4676;SDS011;2352;48.180;11.478;2023-06-10T07:23:48;7.57;;;7.07;;
4676;SDS011;2352;48.180;11.478;2023-06-10T07:26:53;6.30;;;5.90;;
4676;SDS011;2352;48.180;11.478;2023-06-10T07:29:58;6.97;;;6.57;;
4676;SDS011;2352;48.180;11.478;2023-06-10T07:33:02;5.93;;;5.53;;
4676;SDS011;2352;48.180;11.478;2023-06-10T07:36:09;6.38;;;5.95;;
4676;SDS011;2352;48.180;11.478;2023-06-10T07:39:12;6.03;;;5.53;;
4676;SDS011;2352;48.180;11.478;2023-06-10T07:42:15;5.20;;;4.80;;
4676;SDS011;2352;48.180;11.478;2023-06-10T07:45:20;5.65;;;5.13;;
4676;SDS011;2352;48.180;11.478;2023-06-10T07:48:23;4.20;;;4.00;;
4676;SDS011;2352;48.180;11.478;2023-06-10T07:51:27;4.85;;;4.45;;
4676;SDS011;2352;48.180;11.478;2023-06-10T07:54:30;4.60;;;4.40;;
4676;SDS011;2352;48.180;11.478;2023-06-10T07:57:34;3.65;;;3.45;;
4676;SDS011;2352;48.180;11.478;2023-06-10T08:00:39;4.55;;;4.30;;
4676;SDS011;2352;48.180;11.478;2023-06-10T08:03:42;4.40;;;4.10;;
4676;SDS011;2352;48.180;11.478;2023-06-10T08:06:46;4.07;;;3.78;;
4676;SDS011;2352;48.180;11.478;2023-06-10T08:09:49;4.20;;;3.90;;
4676;SDS011;2352;48.180;11.478;2023-06-10T08:12:52;3.33;;;3.13;;
4676;SDS011;2352;48.180;11.478;2023-06-10T08:15:57;3.35;;;3.15;;
4676;SDS011;2352;48.180;11.478;2023-06-10T08:19:00;4.13;;;3.92;;
4676;SDS011;2352;48.180;11.478;2023-06-10T08:22:03;3.70;;;3.50;;
4676;SDS011;2352;48.180;11.478;2023-06-10T08:25:07;3.78;;;3.58;;
4676;SDS011;2352;48.180;11.478;2023-06-10T08:28:11;3.85;;;3.65;;
4676;SDS011;2352;48.180;11.478;2023-06-10T08:31:16;3.65;;;3.45;;
4676;SDS011;2352;48.180;11.478;2023-06-10T08:34:19;3.78;;;3.58;;
4676;SDS011;2352;48.180;11.478;2023-06-10T08:37:23;5.28;;;3.47;;
4676;SDS011;2352;48.180;11.478;2023-06-10T08:40:26;4.13;;;3.83;;
4676;SDS011;2352;48.180;11.478;2023-06-10T08:43:31;3.70;;;3.50;;
4676;SDS011;2352;48.180;11.478;2023-06-10T08:46:37;4.60;;;4.15;;
4676;SDS011;2352;48.180;11.478;2023-06-10T08:49:43;4.35;;;3.92;;
4676;SDS011;2352;48.180;11.478;2023-06-10T08:52:48;4.38;;;4.07;;
4676;SDS011;2352;48.180;11.478;2023-06-10T08:55:53;4.38;;;4.07;;
4676;SDS011;2352;48.180;11.478;2023-06-10T08:58:58;4.18;;;3.97;;
4676;SDS011;2352;48.180;11.478;2023-06-10T09:02:03;4.13;;;3.92;;
4676;SDS011;2352;48.180;11.478;2023-06-10T09:05:07;4.60;;;4.30;;
4676;SDS011;2352;48.180;11.478;2023-06-10T09:08:11;4.13;;;3.83;;
4676;SDS011;2352;48.180;11.478;2023-06-10T09:11:15;4.40;;;4.10;;
4676;SDS011;2352;48.180;11.478;2023-06-10T09:14:18;4.95;;;4.65;;
4676;SDS011;2352;48.180;11.478;2023-06-10T09:17:23;4.43;;;4.03;;
4676;SDS011;2352;48.180;11.478;2023-06-10T09:20:26;4.35;;;4.05;;
4676;SDS011;2352;48.180;11.478;2023-06-10T09:23:29;4.63;;;4.22;;
4676;SDS011;2352;48.180;11.478;2023-06-10T09:26:33;4.57;;;4.38;;
4676;SDS011;2352;48.180;11.478;2023-06-10T09:29:45;4.15;;;3.88;;
4676;SDS011;2352;48.180;11.478;2023-06-10T09:32:50;4.13;;;3.90;;
4676;SDS011;2352;48.180;11.478;2023-06-10T09:35:54;4.70;;;4.40;;
4676;SDS011;2352;48.180;11.478;2023-06-10T09:39:02;4.50;;;4.18;;
4676;SDS011;2352;48.180;11.478;2023-06-10T09:42:15;4.30;;;3.95;;
4676;SDS011;2352;48.180;11.478;2023-06-10T09:45:19;3.90;;;3.60;;
4676;SDS011;2352;48.180;11.478;2023-06-10T09:48:24;4.90;;;4.60;;
4676;SDS011;2352;48.180;11.478;2023-06-10T09:51:27;4.63;;;4.32;;
4676;SDS011;2352;48.180;11.478;2023-06-10T09:54:31;5.38;;;4.38;;
4676;SDS011;2352;48.180;11.478;2023-06-10T09:57:35;3.83;;;3.63;;
4676;SDS011;2352;48.180;11.478;2023-06-10T10:00:38;3.53;;;3.33;;
4676;SDS011;2352;48.180;11.478;2023-06-10T10:03:46;4.22;;;3.92;;
4676;SDS011;2352;48.180;11.478;2023-06-10T10:06:50;3.83;;;3.63;;
4676;SDS011;2352;48.180;11.478;2023-06-10T10:09:53;4.20;;;4.00;;
4676;SDS011;2352;48.180;11.478;2023-06-10T10:12:56;4.43;;;4.07;;
4676;SDS011;2352;48.180;11.478;2023-06-10T10:16:00;3.58;;;3.28;;
4676;SDS011;2352;48.180;11.478;2023-06-10T10:19:07;4.10;;;3.90;;
4676;SDS011;2352;48.180;11.478;2023-06-10T10:22:11;3.83;;;3.63;;
4676;SDS011;2352;48.180;11.478;2023-06-10T10:25:23;5.20;;;3.47;;
4676;SDS011;2352;48.180;11.478;2023-06-10T10:28:29;4.07;;;3.88;;
4676;SDS011;2352;48.180;11.478;2023-06-10T10:31:34;3.58;;;3.28;;
4676;SDS011;2352;48.180;11.478;2023-06-10T10:34:41;3.88;;;3.67;;
4676;SDS011;2352;48.180;11.478;2023-06-10T10:37:46;4.07;;;3.72;;
4676;SDS011;2352;48.180;11.478;2023-06-10T10:40:50;3.72;;;3.42;;
4676;SDS011;2352;48.180;11.478;2023-06-10T10:43:54;3.63;;;3.42;;
4676;SDS011;2352;48.180;11.478;2023-06-10T10:46:57;3.53;;;3.33;;
4676;SDS011;2352;48.180;11.478;2023-06-10T10:50:14;3.92;;;3.53;;
4676;SDS011;2352;48.180;11.478;2023-06-10T10:53:19;3.50;;;3.30;;
4676;SDS011;2352;48.180;11.478;2023-06-10T10:56:23;3.78;;;3.53;;
4676;SDS011;2352;48.180;11.478;2023-06-10T10:59:42;3.72;;;3.53;;
4676;SDS011;2352;48.180;11.478;2023-06-10T11:02:46;3.67;;;3.38;;
4676;SDS011;2352;48.180;11.478;2023-06-10T11:05:52;3.85;;;3.55;;
4676;SDS011;2352;48.180;11.478;2023-06-10T11:08:55;3.70;;;3.50;;
4676;SDS011;2352;48.180;11.478;2023-06-10T11:12:06;4.20;;;3.80;;
4676;SDS011;2352;48.180;11.478;2023-06-10T11:15:09;3.75;;;3.45;;
4676;SDS011;2352;48.180;11.478;2023-06-10T11:18:13;3.75;;;3.55;;
4676;SDS011;2352;48.180;11.478;2023-06-10T11:21:18;3.58;;;3.38;;
4676;SDS011;2352;48.180;11.478;2023-06-10T11:24:21;3.80;;;3.60;;
4676;SDS011;2352;48.180;11.478;2023-06-10T11:27:25;3.30;;;3.10;;
4676;SDS011;2352;48.180;11.478;2023-06-10T11:30:29;3.47;;;3.28;;
4676;SDS011;2352;48.180;11.478;2023-06-10T11:33:37;2.92;;;2.72;;
4676;SDS011;2352;48.180;11.478;2023-06-10T11:36:43;3.05;;;2.85;;
4676;SDS011;2352;48.180;11.478;2023-06-10T11:39:47;5.40;;;3.50;;
4676;SDS011;2352;48.180;11.478;2023-06-10T11:42:50;3.42;;;3.17;;
4676;SDS011;2352;48.180;11.478;2023-06-10T11:45:54;4.13;;;3.92;;
4676;SDS011;2352;48.180;11.478;2023-06-10T11:48:58;2.75;;;2.63;;
4676;SDS011;2352;48.180;11.478;2023-06-10T11:52:05;3.38;;;3.17;;
4676;SDS011;2352;48.180;11.478;2023-06-10T11:55:09;3.58;;;3.38;;
4676;SDS011;2352;48.180;11.478;2023-06-10T11:58:13;2.47;;;2.38;;
4676;SDS011;2352;48.180;11.478;2023-06-10T12:01:19;4.45;;;2.95;;
4676;SDS011;2352;48.180;11.478;2023-06-10T12:04:29;3.53;;;3.33;;
4676;SDS011;2352;48.180;11.478;2023-06-10T12:07:34;3.25;;;3.05;;
4676;SDS011;2352;48.180;11.478;2023-06-10T12:10:41;3.13;;;2.92;;
4676;SDS011;2352;48.180;11.478;2023-06-10T12:13:47;3.88;;;3.67;;
4676;SDS011;2352;48.180;11.478;2023-06-10T12:16:51;3.00;;;2.80;;
4676;SDS011;2352;48.180;11.478;2023-06-10T12:19:54;3.22;;;3.03;;
4676;SDS011;2352;48.180;11.478;2023-06-10T12:22:59;3.53;;;3.30;;
4676;SDS011;2352;48.180;11.478;2023-06-10T12:26:02;3.05;;;2.85;;
4676;SDS011;2352;48.180;11.478;2023-06-10T12:29:16;2.88;;;2.67;;
4676;SDS011;2352;48.180;11.478;2023-06-10T12:32:20;3.22;;;3.03;;
4676;SDS011;2352;48.180;11.478;2023-06-10T12:35:27;3.03;;;2.67;;
4676;SDS011;2352;48.180;11.478;2023-06-10T12:38:32;3.08;;;2.88;;
4676;SDS011;2352;48.180;11.478;2023-06-10T12:41:36;3.63;;;3.42;;
4676;SDS011;2352;48.180;11.478;2023-06-10T12:44:40;3.05;;;2.85;;
4676;SDS011;2352;48.180;11.478;2023-06-10T12:47:43;2.47;;;2.28;;
4676;SDS011;2352;48.180;11.478;2023-06-10T12:50:50;2.50;;;2.40;;
4676;SDS011;2352;48.180;11.478;2023-06-10T12:53:55;2.20;;;2.10;;
4676;SDS011;2352;48.180;11.478;2023-06-10T12:56:59;2.92;;;2.72;;
4676;SDS011;2352;48.180;11.478;2023-06-10T13:00:02;4.10;;;3.05;;
4676;SDS011;2352;48.180;11.478;2023-06-10T13:03:10;3.78;;;2.58;;
4676;SDS011;2352;48.180;11.478;2023-06-10T13:06:14;5.32;;;3.05;;
4676;SDS011;2352;48.180;11.478;2023-06-10T13:09:18;2.58;;;2.47;;
4676;SDS011;2352;48.180;11.478;2023-06-10T13:12:22;3.03;;;2.83;;
4676;SDS011;2352;48.180;11.478;2023-06-10T13:15:45;3.42;;;3.22;;
4676;SDS011;2352;48.180;11.478;2023-06-10T13:18:50;3.40;;;3.20;;
4676;SDS011;2352;48.180;11.478;2023-06-10T13:21:53;2.58;;;2.47;;
4676;SDS011;2352;48.180;11.478;2023-06-10T13:24:57;3.65;;;3.45;;
4676;SDS011;2352;48.180;11.478;2023-06-10T13:28:01;3.45;;;3.25;;
4676;SDS011;2352;48.180;11.478;2023-06-10T13:31:04;3.40;;;3.20;;
4676;SDS011;2352;48.180;11.478;2023-06-10T13:34:08;4.10;;;3.90;;
4676;SDS011;2352;48.180;11.478;2023-06-10T13:37:11;3.33;;;3.13;;
4676;SDS011;2352;48.180;11.478;2023-06-10T13:40:16;4.40;;;2.80;;
4676;SDS011;2352;48.180;11.478;2023-06-10T13:43:21;3.13;;;3.03;;
4676;SDS011;2352;48.180;11.478;2023-06-10T13:46:24;3.88;;;3.58;;
4676;SDS011;2352;48.180;11.478;2023-06-10T13:49:27;3.38;;;2.90;;
4676;SDS011;2352;48.180;11.478;2023-06-10T13:52:31;3.70;;;3.50;;
4676;SDS011;2352;48.180;11.478;2023-06-10T13:55:36;2.97;;;2.78;;
4676;SDS011;2352;48.180;11.478;2023-06-10T13:58:39;3.78;;;3.58;;
4676;SDS011;2352;48.180;11.478;2023-06-10T14:01:43;3.25;;;3.08;;
4676;SDS011;2352;48.180;11.478;2023-06-10T14:04:47;2.83;;;2.72;;
4676;SDS011;2352;48.180;11.478;2023-06-10T14:07:50;2.55;;;2.45;;
4676;SDS011;2352;48.180;11.478;2023-06-10T14:10:55;3.15;;;3.00;;
4676;SDS011;2352;48.180;11.478;2023-06-10T14:13:58;3.13;;;3.00;;
4676;SDS011;2352;48.180;11.478;2023-06-10T14:17:02;3.25;;;3.03;;
4676;SDS011;2352;48.180;11.478;2023-06-10T14:20:06;2.25;;;2.15;;
4676;SDS011;2352;48.180;11.478;2023-06-10T14:23:10;2.22;;;2.13;;
4676;SDS011;2352;48.180;11.478;2023-06-10T14:26:15;3.90;;;3.03;;
4676;SDS011;2352;48.180;11.478;2023-06-10T14:29:18;3.22;;;3.03;;
4676;SDS011;2352;48.180;11.478;2023-06-10T14:32:21;3.38;;;3.17;;
4676;SDS011;2352;48.180;11.478;2023-06-10T14:35:25;3.03;;;2.83;;
4676;SDS011;2352;48.180;11.478;2023-06-10T14:38:29;2.80;;;2.60;;
4676;SDS011;2352;48.180;11.478;2023-06-10T14:41:33;3.03;;;2.70;;
4676;SDS011;2352;48.180;11.478;2023-06-10T14:44:37;3.25;;;3.05;;
4676;SDS011;2352;48.180;11.478;2023-06-10T14:47:40;12.68;;;4.22;;
4676;SDS011;2352;48.180;11.478;2023-06-10T14:50:43;2.85;;;2.65;;
4676;SDS011;2352;48.180;11.478;2023-06-10T14:53:51;3.10;;;2.90;;
4676;SDS011;2352;48.180;11.478;2023-06-10T14:56:56;2.72;;;2.53;;
4676;SDS011;2352;48.180;11.478;2023-06-10T14:59:59;2.75;;;2.55;;
4676;SDS011;2352;48.180;11.478;2023-06-10T15:03:03;2.17;;;2.08;;
4676;SDS011;2352;48.180;11.478;2023-06-10T15:06:06;2.00;;;1.88;;
4676;SDS011;2352;48.180;11.478;2023-06-10T15:09:09;2.63;;;2.53;;
4676;SDS011;2352;48.180;11.478;2023-06-10T15:12:14;4.05;;;3.75;;
4676;SDS011;2352;48.180;11.478;2023-06-10T15:15:17;3.15;;;2.95;;
4676;SDS011;2352;48.180;11.478;2023-06-10T15:18:20;2.85;;;2.65;;
4676;SDS011;2352;48.180;11.478;2023-06-10T15:21:24;2.28;;;2.17;;
4676;SDS011;2352;48.180;11.478;2023-06-10T15:24:27;2.55;;;2.45;;
4676;SDS011;2352;48.180;11.478;2023-06-10T15:27:32;4.28;;;3.38;;
4676;SDS011;2352;48.180;11.478;2023-06-10T15:30:35;2.97;;;2.88;;
4676;SDS011;2352;48.180;11.478;2023-06-10T15:33:39;3.47;;;3.28;;
4676;SDS011;2352;48.180;11.478;2023-06-10T15:36:45;3.95;;;3.75;;
4676;SDS011;2352;48.180;11.478;2023-06-10T15:39:49;3.58;;;3.38;;
4676;SDS011;2352;48.180;11.478;2023-06-10T15:42:53;3.10;;;2.90;;
4676;SDS011;2352;48.180;11.478;2023-06-10T15:45:56;3.13;;;2.92;;
4676;SDS011;2352;48.180;11.478;2023-06-10T15:49:00;2.90;;;2.70;;
4676;SDS011;2352;48.180;11.478;2023-06-10T15:52:04;2.65;;;2.55;;
4676;SDS011;2352;48.180;11.478;2023-06-10T15:55:07;3.33;;;3.13;;
4676;SDS011;2352;48.180;11.478;2023-06-10T15:58:13;3.10;;;2.90;;
4676;SDS011;2352;48.180;11.478;2023-06-10T16:01:16;3.30;;;3.10;;
4676;SDS011;2352;48.180;11.478;2023-06-10T16:04:19;3.60;;;3.40;;
4676;SDS011;2352;48.180;11.478;2023-06-10T16:07:23;3.50;;;3.30;;
4676;SDS011;2352;48.180;11.478;2023-06-10T16:10:26;3.63;;;3.38;;
4676;SDS011;2352;48.180;11.478;2023-06-10T16:13:30;4.53;;;2.97;;
4676;SDS011;2352;48.180;11.478;2023-06-10T16:16:34;3.28;;;3.08;;
4676;SDS011;2352;48.180;11.478;2023-06-10T16:19:37;3.10;;;2.90;;
4676;SDS011;2352;48.180;11.478;2023-06-10T16:22:40;4.05;;;3.85;;
4676;SDS011;2352;48.180;11.478;2023-06-10T16:25:44;3.55;;;3.33;;
4676;SDS011;2352;48.180;11.478;2023-06-10T16:28:49;3.58;;;3.38;;
4676;SDS011;2352;48.180;11.478;2023-06-10T16:31:52;3.78;;;3.58;;
4676;SDS011;2352;48.180;11.478;2023-06-10T16:34:55;5.15;;;3.22;;
4676;SDS011;2352;48.180;11.478;2023-06-10T16:37:58;4.95;;;3.50;;
4676;SDS011;2352;48.180;11.478;2023-06-10T16:41:04;3.70;;;3.50;;
4676;SDS011;2352;48.180;11.478;2023-06-10T16:44:08;4.07;;;3.88;;
4676;SDS011;2352;48.180;11.478;2023-06-10T16:47:11;4.00;;;3.80;;
4676;SDS011;2352;48.180;11.478;2023-06-10T16:50:14;3.60;;;3.40;;
4676;SDS011;2352;48.180;11.478;2023-06-10T16:53:17;3.20;;;2.80;;
4676;SDS011;2352;48.180;11.478;2023-06-10T16:56:20;2.80;;;2.60;;
4676;SDS011;2352;48.180;11.478;2023-06-10T16:59:24;2.70;;;2.50;;
4676;SDS011;2352;48.180;11.478;2023-06-10T17:02:27;5.63;;;3.15;;
4676;SDS011;2352;48.180;11.478;2023-06-10T17:05:30;3.05;;;2.95;;
4676;SDS011;2352;48.180;11.478;2023-06-10T17:08:33;3.58;;;3.28;;
4676;SDS011;2352;48.180;11.478;2023-06-10T17:11:36;3.20;;;3.00;;
4676;SDS011;2352;48.180;11.478;2023-06-10T17:14:40;3.50;;;3.25;;
4676;SDS011;2352;48.180;11.478;2023-06-10T17:17:43;3.65;;;3.45;;
4676;SDS011;2352;48.180;11.478;2023-06-10T17:20:46;3.65;;;3.45;;
4676;SDS011;2352;48.180;11.478;2023-06-10T17:23:49;3.78;;;3.47;;
4676;SDS011;2352;48.180;11.478;2023-06-10T17:26:52;3.25;;;3.05;;
4676;SDS011;2352;48.180;11.478;2023-06-10T17:29:56;3.75;;;3.45;;
4676;SDS011;2352;48.180;11.478;2023-06-10T17:32:59;2.70;;;2.60;;
4676;SDS011;2352;48.180;11.478;2023-06-10T17:36:03;1.83;;;1.70;;
4676;SDS011;2352;48.180;11.478;2023-06-10T17:39:06;2.13;;;2.03;;
4676;SDS011;2352;48.180;11.478;2023-06-10T17:42:09;2.25;;;2.15;;
4676;SDS011;2352;48.180;11.478;2023-06-10T17:45:13;2.30;;;2.10;;
4676;SDS011;2352;48.180;11.478;2023-06-10T17:48:17;1.80;;;1.70;;
4676;SDS011;2352;48.180;11.478;2023-06-10T17:51:20;3.30;;;3.05;;
4676;SDS011;2352;48.180;11.478;2023-06-10T17:54:23;3.35;;;3.15;;
4676;SDS011;2352;48.180;11.478;2023-06-10T17:57:26;3.60;;;3.40;;
4676;SDS011;2352;48.180;11.478;2023-06-10T18:00:30;3.53;;;3.22;;
4676;SDS011;2352;48.180;11.478;2023-06-10T18:03:33;3.85;;;3.65;;
4676;SDS011;2352;48.180;11.478;2023-06-10T18:06:37;4.20;;;4.00;;
4676;SDS011;2352;48.180;11.478;2023-06-10T18:09:40;3.05;;;2.95;;
4676;SDS011;2352;48.180;11.478;2023-06-10T18:12:43;4.65;;;4.35;;
4676;SDS011;2352;48.180;11.478;2023-06-10T18:15:48;4.32;;;4.00;;
4676;SDS011;2352;48.180;11.478;2023-06-10T18:18:50;4.38;;;4.07;;
4676;SDS011;2352;48.180;11.478;2023-06-10T18:21:53;4.25;;;3.95;;
4676;SDS011;2352;48.180;11.478;2023-06-10T18:24:57;4.35;;;3.95;;
4676;SDS011;2352;48.180;11.478;2023-06-10T18:28:00;4.82;;;3.63;;
4676;SDS011;2352;48.180;11.478;2023-06-10T18:31:04;4.43;;;4.13;;
4676;SDS011;2352;48.180;11.478;2023-06-10T18:34:07;3.85;;;3.65;;
4676;SDS011;2352;48.180;11.478;2023-06-10T18:37:10;4.60;;;4.15;;
4676;SDS011;2352;48.180;11.478;2023-06-10T18:40:13;4.05;;;3.75;;
4676;SDS011;2352;48.180;11.478;2023-06-10T18:43:16;4.45;;;4.15;;
4676;SDS011;2352;48.180;11.478;2023-06-10T18:46:20;3.95;;;3.70;;